createdAt,value
2019-03-22T00:01:09.968Z,53.90
2019-03-22T00:02:19.755Z,53.86
2019-03-22T00:03:28.319Z,53.77
2019-03-22T00:04:36.727Z,53.84
2019-03-22T00:05:44.815Z,53.86
2019-03-22T00:06:53.104Z,53.82
2019-03-22T00:08:01.214Z,53.75
2019-03-22T00:09:09.640Z,53.73
2019-03-22T00:10:17.909Z,53.71
2019-03-22T00:11:25.880Z,53.73
2019-03-22T00:12:34.324Z,53.80
2019-03-22T00:13:42.369Z,53.74
2019-03-22T00:14:50.365Z,53.82
2019-03-22T00:15:58.483Z,53.89
2019-03-22T00:17:06.524Z,53.83
2019-03-22T00:18:14.570Z,53.88
2019-03-22T00:19:22.560Z,53.92
2019-03-22T00:20:30.675Z,54.04
2019-03-22T00:21:38.809Z,54.02
2019-03-22T00:22:46.733Z,54.02
2019-03-22T00:23:55.209Z,54.06
2019-03-22T00:25:03.582Z,54.01
2019-03-22T00:26:11.776Z,53.97
2019-03-22T00:27:19.884Z,53.94
2019-03-22T00:28:28.072Z,54.06
2019-03-22T00:29:36.304Z,54.04
2019-03-22T00:30:44.381Z,54.03
2019-03-22T00:31:52.362Z,54.01
2019-03-22T00:33:00.349Z,54.03
2019-03-22T00:34:08.412Z,54.03
2019-03-22T00:35:16.883Z,54.13
2019-03-22T00:36:24.877Z,54.19
2019-03-22T00:37:32.791Z,54.18
2019-03-22T00:38:40.773Z,54.13
2019-03-22T00:39:48.965Z,54.14
2019-03-22T00:40:57.445Z,54.10
2019-03-22T00:42:05.432Z,54.11
2019-03-22T00:43:13.553Z,54.16
2019-03-22T00:44:21.854Z,54.22
2019-03-22T00:45:29.880Z,54.24
2019-03-22T00:46:37.847Z,54.30
2019-03-22T00:47:45.802Z,54.36
2019-03-22T00:48:54.132Z,54.46
2019-03-22T00:50:02.359Z,54.45
2019-03-22T00:51:10.359Z,54.39
2019-03-22T00:52:18.615Z,54.54
2019-03-22T00:53:26.681Z,54.61
2019-03-22T00:54:34.721Z,54.65
2019-03-22T00:55:43.045Z,54.59
2019-03-22T00:56:51.034Z,54.57
2019-03-22T00:57:59.063Z,54.56
2019-03-22T00:59:07.185Z,54.60
2019-03-22T01:00:18.330Z,54.55
2019-03-22T01:01:26.482Z,54.52
2019-03-22T01:02:34.551Z,54.54
2019-03-22T01:03:42.563Z,54.52
2019-03-22T01:04:50.679Z,54.61
2019-03-22T01:05:58.748Z,54.71
2019-03-22T01:07:06.841Z,54.77
2019-03-22T01:08:14.726Z,54.83
2019-03-22T01:09:22.669Z,54.93
2019-03-22T01:10:30.691Z,54.99
2019-03-22T01:11:38.848Z,55.01
2019-03-22T01:12:46.935Z,54.98
2019-03-22T01:13:55.081Z,55.07
2019-03-22T01:15:03.237Z,55.11
2019-03-22T01:16:11.132Z,55.21
2019-03-22T01:17:19.197Z,55.33
2019-03-22T01:18:27.313Z,55.27
2019-03-22T01:19:35.410Z,55.39
2019-03-22T01:20:43.358Z,55.42
2019-03-22T01:21:51.515Z,55.46
2019-03-22T01:22:59.650Z,55.49
2019-03-22T01:24:07.906Z,55.62
2019-03-22T01:25:16.028Z,55.69
2019-03-22T01:26:23.883Z,55.79
2019-03-22T01:27:40.478Z,55.84
2019-03-22T01:28:41.628Z,55.92
2019-03-22T01:29:50.021Z,55.97
2019-03-22T01:30:57.965Z,56.08
2019-03-22T01:32:05.907Z,56.00
2019-03-22T01:33:14.101Z,56.05
2019-03-22T01:34:22.059Z,56.04
2019-03-22T01:35:30.044Z,56.00
2019-03-22T01:36:37.897Z,56.05
2019-03-22T01:37:45.894Z,56.11
2019-03-22T01:38:54.403Z,56.09
2019-03-22T01:40:02.672Z,56.15
2019-03-22T01:41:10.656Z,56.14
2019-03-22T01:42:18.650Z,56.17
2019-03-22T01:43:27.093Z,56.19
2019-03-22T01:44:35.270Z,56.20
2019-03-22T01:45:43.312Z,56.22
2019-03-22T01:46:51.346Z,56.22
2019-03-22T01:47:59.380Z,56.16
2019-03-22T01:49:07.523Z,56.17
2019-03-22T01:50:18.725Z,56.13
2019-03-22T01:51:26.666Z,56.13
2019-03-22T01:52:34.751Z,56.13
2019-03-22T01:53:42.834Z,56.08
2019-03-22T01:54:50.870Z,56.07
2019-03-22T01:55:58.916Z,56.07
2019-03-22T01:57:06.834Z,56.08
2019-03-22T01:58:14.884Z,56.01
2019-03-22T01:59:22.830Z,55.92
2019-03-22T02:00:30.893Z,55.85
2019-03-22T02:01:39.004Z,55.91
2019-03-22T02:02:47.415Z,55.95
2019-03-22T02:03:55.597Z,55.89
2019-03-22T02:05:04.101Z,55.87
2019-03-22T02:06:12.536Z,55.93
2019-03-22T02:07:20.585Z,55.92
2019-03-22T02:08:28.762Z,55.95
2019-03-22T02:09:36.694Z,55.96
2019-03-22T02:10:44.794Z,55.93
2019-03-22T02:11:52.838Z,55.93
2019-03-22T02:13:01.009Z,55.84
2019-03-22T02:14:09.292Z,55.87
2019-03-22T02:15:18.011Z,55.85
2019-03-22T02:16:26.212Z,55.85
2019-03-22T02:17:34.387Z,55.84
2019-03-22T02:18:42.443Z,55.78
2019-03-22T02:19:50.510Z,55.74
2019-03-22T02:20:58.457Z,55.75
2019-03-22T02:22:06.604Z,55.85
2019-03-22T02:23:14.730Z,55.92
2019-03-22T02:24:22.968Z,55.78
2019-03-22T02:25:31.489Z,55.72
2019-03-22T02:26:39.893Z,55.68
2019-03-22T02:27:48.034Z,55.76
2019-03-22T02:28:56.215Z,55.75
2019-03-22T02:30:06.090Z,55.60
2019-03-22T02:31:14.222Z,55.54
2019-03-22T02:32:22.024Z,55.49
2019-03-22T02:33:30.160Z,55.51
2019-03-22T02:34:38.347Z,55.43
2019-03-22T02:35:46.452Z,55.43
2019-03-22T02:36:54.495Z,55.33
2019-03-22T02:38:02.277Z,55.31
2019-03-22T02:39:10.367Z,55.21
2019-03-22T02:40:19.127Z,55.19
2019-03-22T02:41:27.408Z,55.15
2019-03-22T02:42:35.702Z,55.11
2019-03-22T02:43:43.732Z,55.04
2019-03-22T02:44:51.957Z,55.09
2019-03-22T02:45:59.883Z,55.12
2019-03-22T02:47:08.505Z,55.12
2019-03-22T02:48:16.494Z,55.07
2019-03-22T02:49:24.453Z,55.04
2019-03-22T02:50:32.722Z,54.98
2019-03-22T02:51:40.993Z,54.90
2019-03-22T02:52:49.015Z,54.93
2019-03-22T02:53:56.897Z,54.91
2019-03-22T02:55:06.763Z,54.97
2019-03-22T02:56:14.891Z,55.01
2019-03-22T02:57:22.918Z,55.01
2019-03-22T02:58:31.214Z,55.06
2019-03-22T02:59:39.724Z,55.06
2019-03-22T03:00:47.843Z,55.11
2019-03-22T03:01:55.666Z,55.01
2019-03-22T03:03:03.714Z,54.91
2019-03-22T03:04:11.987Z,55.07
2019-03-22T03:05:20.311Z,54.98
2019-03-22T03:06:28.257Z,54.93
2019-03-22T03:07:36.503Z,54.97
2019-03-22T03:08:44.439Z,54.94
2019-03-22T03:09:53.415Z,54.88
2019-03-22T03:11:01.672Z,54.78
2019-03-22T03:12:09.820Z,54.72
2019-03-22T03:13:18.418Z,54.77
2019-03-22T03:14:26.519Z,54.84
2019-03-22T03:15:34.485Z,54.80
2019-03-22T03:16:42.810Z,54.73
2019-03-22T03:17:51.038Z,54.81
2019-03-22T03:18:59.326Z,54.72
2019-03-22T03:20:11.252Z,54.73
2019-03-22T03:21:19.249Z,54.70
2019-03-22T03:22:27.209Z,54.75
2019-03-22T03:23:35.462Z,54.69
2019-03-22T03:24:43.846Z,54.68
2019-03-22T03:25:52.194Z,54.65
2019-03-22T03:27:00.488Z,54.68
2019-03-22T03:28:08.693Z,54.75
2019-03-22T03:29:16.682Z,54.74
2019-03-22T03:30:24.876Z,54.81
2019-03-22T03:31:32.543Z,54.70
2019-03-22T03:32:40.574Z,54.70
2019-03-22T03:33:48.610Z,54.75
2019-03-22T03:34:56.670Z,54.77
2019-03-22T03:36:05.171Z,54.83
2019-03-22T03:37:13.174Z,54.83
2019-03-22T03:38:21.292Z,54.85
2019-03-22T03:39:29.528Z,54.78
2019-03-22T03:40:37.478Z,54.83
2019-03-22T03:41:45.402Z,54.87
2019-03-22T03:42:53.421Z,54.83
2019-03-22T03:44:01.398Z,54.75
2019-03-22T03:45:38.156Z,54.83
2019-03-22T03:46:46.099Z,54.79
2019-03-22T03:47:54.265Z,54.69
2019-03-22T03:49:02.189Z,54.69
2019-03-22T03:50:10.917Z,54.63
2019-03-22T03:51:18.882Z,54.70
2019-03-22T03:52:26.894Z,54.73
2019-03-22T03:53:34.998Z,54.83
2019-03-22T03:54:42.789Z,54.82
2019-03-22T03:55:50.994Z,54.81
2019-03-22T03:56:58.955Z,54.73
2019-03-22T03:58:08.112Z,54.79
2019-03-22T03:59:16.281Z,54.69
2019-03-22T04:00:24.125Z,54.71
2019-03-22T04:01:32.463Z,54.73
2019-03-22T04:02:40.514Z,54.68
2019-03-22T04:03:48.330Z,54.68
2019-03-22T04:04:56.396Z,54.68
2019-03-22T04:06:04.450Z,54.33
2019-03-22T04:07:12.502Z,54.31
2019-03-22T04:08:20.463Z,54.28
2019-03-22T04:09:28.434Z,54.38
2019-03-22T04:10:36.753Z,54.47
2019-03-22T04:11:44.874Z,54.34
2019-03-22T04:12:52.868Z,54.39
2019-03-22T04:14:01.126Z,54.57
2019-03-22T04:15:09.630Z,54.66
2019-03-22T04:16:17.641Z,54.48
2019-03-22T04:17:25.621Z,54.58
2019-03-22T04:18:33.633Z,54.45
2019-03-22T04:19:41.533Z,54.41
2019-03-22T04:20:49.645Z,54.39
2019-03-22T04:21:58.547Z,54.21
2019-03-22T04:23:06.736Z,54.31
2019-03-22T04:24:14.680Z,54.29
2019-03-22T04:25:22.843Z,54.23
2019-03-22T04:26:30.787Z,54.27
2019-03-22T04:27:38.830Z,54.33
2019-03-22T04:28:46.739Z,54.34
2019-03-22T04:29:54.585Z,54.31
2019-03-22T04:31:02.612Z,54.27
2019-03-22T04:32:10.474Z,54.15
2019-03-22T04:33:18.921Z,54.23
2019-03-22T04:34:27.083Z,54.22
2019-03-22T04:35:35.509Z,54.31
2019-03-22T04:36:43.503Z,54.31
2019-03-22T04:37:51.827Z,54.19
2019-03-22T04:38:59.899Z,54.25
2019-03-22T04:40:23.170Z,54.34
2019-03-22T04:41:31.284Z,54.40
2019-03-22T04:42:39.857Z,54.34
2019-03-22T04:43:47.811Z,54.17
2019-03-22T04:44:55.974Z,54.21
2019-03-22T04:46:05.186Z,54.19
2019-03-22T04:47:17.612Z,54.32
2019-03-22T04:48:35.885Z,54.38
2019-03-22T04:49:45.697Z,54.42
2019-03-22T04:50:57.551Z,54.42
2019-03-22T04:52:06.712Z,54.41
2019-03-22T04:53:21.768Z,54.41
2019-03-22T04:54:33.080Z,54.49
2019-03-22T04:55:44.271Z,54.54
2019-03-22T04:56:53.601Z,54.55
2019-03-22T04:58:04.659Z,54.45
2019-03-22T04:59:19.440Z,54.46
2019-03-22T05:00:27.134Z,54.45
2019-03-22T05:01:36.747Z,54.40
2019-03-22T05:02:46.143Z,54.55
2019-03-22T05:03:55.285Z,54.43
2019-03-22T05:05:05.566Z,54.39
2019-03-22T05:06:14.758Z,54.34
2019-03-22T05:07:23.481Z,54.27
2019-03-22T05:08:36.179Z,54.20
2019-03-22T05:09:45.389Z,54.23
2019-03-22T05:10:56.103Z,54.24
2019-03-22T05:12:06.783Z,54.38
2019-03-22T05:13:18.161Z,54.21
2019-03-22T05:14:26.821Z,54.16
2019-03-22T05:15:35.892Z,54.18
2019-03-22T05:16:47.924Z,54.21
2019-03-22T05:17:56.067Z,54.04
2019-03-22T05:19:06.922Z,54.07
2019-03-22T05:20:17.246Z,54.08
2019-03-22T05:21:28.630Z,54.03
2019-03-22T05:22:39.079Z,53.97
2019-03-22T05:23:51.342Z,54.10
2019-03-22T05:25:02.089Z,54.09
2019-03-22T05:26:11.749Z,54.12
2019-03-22T05:27:21.697Z,54.10
2019-03-22T05:28:32.191Z,54.19
2019-03-22T05:29:43.669Z,54.12
2019-03-22T05:31:04.612Z,53.85
2019-03-22T05:32:14.814Z,53.89
2019-03-22T05:33:22.582Z,53.84
2019-03-22T05:34:30.310Z,53.79
2019-03-22T05:35:38.514Z,53.70
2019-03-22T05:36:46.594Z,53.71
2019-03-22T05:37:54.516Z,53.69
2019-03-22T05:39:02.797Z,53.81
2019-03-22T05:40:10.898Z,53.89
2019-03-22T05:41:19.021Z,54.08
2019-03-22T05:42:27.082Z,54.02
2019-03-22T05:43:35.073Z,53.94
2019-03-22T05:44:43.273Z,54.09
2019-03-22T05:45:51.251Z,53.98
2019-03-22T05:47:00.701Z,54.04
2019-03-22T05:48:08.696Z,54.05
2019-03-22T05:49:16.998Z,53.99
2019-03-22T05:50:25.816Z,53.92
2019-03-22T05:51:34.110Z,54.02
2019-03-22T05:52:42.219Z,53.98
2019-03-22T05:53:50.408Z,53.91
2019-03-22T05:54:58.587Z,53.96
2019-03-22T05:56:06.690Z,53.95
2019-03-22T05:57:14.726Z,53.94
2019-03-22T05:58:23.111Z,53.98
2019-03-22T05:59:42.029Z,53.93
2019-03-22T06:00:41.531Z,53.94
2019-03-22T06:01:49.819Z,54.07
2019-03-22T06:02:57.967Z,53.89
2019-03-22T06:04:06.309Z,53.82
2019-03-22T06:05:14.584Z,53.72
2019-03-22T06:06:22.934Z,53.76
2019-03-22T06:07:31.134Z,53.96
2019-03-22T06:08:39.464Z,53.83
2019-03-22T06:09:47.635Z,53.65
2019-03-22T06:10:55.942Z,53.74
2019-03-22T06:12:03.982Z,53.76
2019-03-22T06:13:12.430Z,53.72
2019-03-22T06:14:21.597Z,53.67
2019-03-22T06:15:29.631Z,53.60
2019-03-22T06:16:37.706Z,53.54
2019-03-22T06:17:51.514Z,53.63
2019-03-22T06:18:55.782Z,53.59
2019-03-22T06:20:05.068Z,53.62
2019-03-22T06:21:13.340Z,53.70
2019-03-22T06:22:21.693Z,53.50
2019-03-22T06:23:29.962Z,53.53
2019-03-22T06:24:38.035Z,53.45
2019-03-22T06:25:46.104Z,53.53
2019-03-22T06:26:54.069Z,53.57
2019-03-22T06:28:02.090Z,53.49
2019-03-22T06:29:10.188Z,53.44
2019-03-22T06:30:18.655Z,53.46
2019-03-22T06:31:27.085Z,53.49
2019-03-22T06:32:35.377Z,53.40
2019-03-22T06:33:43.373Z,53.49
2019-03-22T06:34:51.351Z,53.36
2019-03-22T06:35:59.637Z,53.14
2019-03-22T06:37:07.713Z,53.18
2019-03-22T06:38:15.874Z,53.13
2019-03-22T06:39:24.500Z,53.13
2019-03-22T06:40:32.705Z,53.13
2019-03-22T06:41:40.920Z,53.10
2019-03-22T06:42:48.914Z,52.95
2019-03-22T06:43:56.861Z,53.00
2019-03-22T06:45:06.503Z,52.94
2019-03-22T06:46:14.544Z,52.94
2019-03-22T06:47:22.940Z,53.01
2019-03-22T06:48:31.138Z,52.89
2019-03-22T06:49:39.238Z,52.82
2019-03-22T06:50:47.821Z,52.82
2019-03-22T06:51:56.190Z,52.73
2019-03-22T06:53:04.531Z,52.37
2019-03-22T06:54:12.563Z,52.17
2019-03-22T06:55:20.758Z,52.24
2019-03-22T06:56:29.026Z,52.01
2019-03-22T06:57:37.260Z,51.96
2019-03-22T06:58:45.548Z,51.90
2019-03-22T07:00:05.523Z,51.99
2019-03-22T07:01:03.313Z,52.03
2019-03-22T07:02:11.530Z,51.96
2019-03-22T07:03:19.898Z,51.90
2019-03-22T07:04:28.296Z,51.75
2019-03-22T07:05:36.422Z,51.71
2019-03-22T07:06:44.582Z,51.61
2019-03-22T07:07:52.997Z,51.75
2019-03-22T07:09:01.203Z,51.74
2019-03-22T07:10:10.212Z,51.72
2019-03-22T07:11:18.229Z,51.75
2019-03-22T07:12:26.920Z,51.40
2019-03-22T07:13:35.121Z,51.32
2019-03-22T07:14:43.111Z,51.44
2019-03-22T07:15:51.227Z,51.52
2019-03-22T07:16:59.304Z,51.56
2019-03-22T07:18:07.448Z,51.56
2019-03-22T07:19:16.068Z,51.58
2019-03-22T07:20:24.017Z,51.39
2019-03-22T07:21:32.068Z,51.37
2019-03-22T07:22:40.012Z,51.45
2019-03-22T07:23:48.267Z,51.29
2019-03-22T07:24:56.391Z,51.40
2019-03-22T07:26:04.613Z,51.17
2019-03-22T07:27:12.753Z,51.21
2019-03-22T07:28:20.934Z,51.13
2019-03-22T07:29:29.392Z,51.13
2019-03-22T07:30:37.594Z,51.09
2019-03-22T07:31:46.209Z,51.21
2019-03-22T07:32:54.399Z,51.17
2019-03-22T07:34:02.349Z,51.03
2019-03-22T07:35:10.288Z,51.16
2019-03-22T07:36:18.291Z,51.10
2019-03-22T07:37:26.638Z,51.23
2019-03-22T07:38:34.602Z,51.16
2019-03-22T07:39:42.658Z,51.13
2019-03-22T07:40:50.802Z,51.17
2019-03-22T07:41:58.666Z,51.12
2019-03-22T07:43:06.601Z,51.12
2019-03-22T07:44:15.265Z,51.10
2019-03-22T07:45:23.871Z,51.16
2019-03-22T07:46:31.926Z,51.09
2019-03-22T07:47:39.962Z,51.16
2019-03-22T07:48:48.057Z,51.11
2019-03-22T07:49:56.108Z,51.13
2019-03-22T07:51:04.164Z,51.21
2019-03-22T07:52:14.356Z,51.18
2019-03-22T07:53:22.821Z,51.21
2019-03-22T07:54:30.724Z,51.36
2019-03-22T07:55:38.893Z,51.33
2019-03-22T07:56:46.984Z,51.41
2019-03-22T07:57:55.084Z,51.47
2019-03-22T07:59:03.083Z,51.53
2019-03-22T08:00:13.558Z,51.50
2019-03-22T08:01:22.129Z,51.62
2019-03-22T08:02:30.348Z,51.66
2019-03-22T08:03:38.439Z,51.66
2019-03-22T08:04:46.430Z,51.67
2019-03-22T08:05:54.629Z,51.62
2019-03-22T08:07:02.892Z,51.71
2019-03-22T08:08:10.922Z,51.87
2019-03-22T08:09:19.027Z,52.10
2019-03-22T08:10:26.950Z,52.28
2019-03-22T08:11:35.178Z,52.53
2019-03-22T08:12:43.212Z,52.57
2019-03-22T08:13:51.324Z,52.53
2019-03-22T08:14:59.605Z,52.52
2019-03-22T08:16:07.724Z,52.61
2019-03-22T08:17:15.695Z,52.71
2019-03-22T08:18:24.318Z,52.68
2019-03-22T08:19:32.598Z,52.79
2019-03-22T08:20:40.951Z,52.83
2019-03-22T08:21:49.015Z,52.91
2019-03-22T08:22:57.130Z,52.92
2019-03-22T08:24:05.341Z,52.91
2019-03-22T08:25:13.364Z,52.97
2019-03-22T08:26:21.257Z,53.01
2019-03-22T08:27:29.498Z,53.02
2019-03-22T08:28:37.498Z,53.09
2019-03-22T08:29:45.449Z,53.12
2019-03-22T08:30:53.483Z,53.25
2019-03-22T08:32:01.489Z,53.28
2019-03-22T08:33:09.893Z,53.47
2019-03-22T08:34:18.497Z,53.52
2019-03-22T08:35:26.592Z,53.52
2019-03-22T08:36:35.111Z,53.47
2019-03-22T08:37:51.977Z,53.53
2019-03-22T08:38:53.030Z,53.55
2019-03-22T08:40:01.122Z,53.59
2019-03-22T08:41:09.454Z,53.61
2019-03-22T08:42:17.658Z,53.61
2019-03-22T08:43:26.062Z,53.54
2019-03-22T08:44:34.653Z,53.49
2019-03-22T08:45:43.042Z,53.50
2019-03-22T08:46:51.334Z,53.51
2019-03-22T08:47:59.432Z,53.53
2019-03-22T08:49:09.504Z,53.71
2019-03-22T08:50:17.615Z,53.71
2019-03-22T08:51:25.704Z,53.72
2019-03-22T08:52:34.150Z,53.81
2019-03-22T08:53:54.558Z,53.67
2019-03-22T08:54:52.024Z,53.70
2019-03-22T08:56:00.102Z,53.62
2019-03-22T08:57:08.109Z,53.65
2019-03-22T08:58:18.479Z,53.64
2019-03-22T08:59:25.794Z,53.71
2019-03-22T09:00:39.574Z,53.61
2019-03-22T09:01:43.777Z,53.50
2019-03-22T09:02:52.057Z,53.40
2019-03-22T09:04:00.171Z,53.29
2019-03-22T09:05:08.550Z,53.24
2019-03-22T09:06:16.785Z,53.26
2019-03-22T09:07:25.177Z,53.40
2019-03-22T09:08:33.156Z,53.52
2019-03-22T09:09:42.031Z,53.58
2019-03-22T09:10:50.066Z,53.62
2019-03-22T09:11:58.017Z,53.63
2019-03-22T09:13:05.975Z,53.68
2019-03-22T09:14:14.012Z,53.77
2019-03-22T09:15:22.217Z,53.86
2019-03-22T09:16:30.925Z,54.24
2019-03-22T09:17:38.966Z,54.33
2019-03-22T09:18:46.874Z,54.44
2019-03-22T09:19:55.441Z,54.47
2019-03-22T09:21:03.523Z,54.55
2019-03-22T09:22:11.609Z,54.50
2019-03-22T09:23:19.805Z,54.57
2019-03-22T09:24:38.656Z,54.54
2019-03-22T09:25:37.766Z,54.73
2019-03-22T09:26:47.969Z,54.60
2019-03-22T09:27:55.550Z,54.53
2019-03-22T09:29:03.851Z,54.09
2019-03-22T09:30:15.632Z,53.82
2019-03-22T09:31:23.665Z,53.97
2019-03-22T09:32:31.972Z,53.97
2019-03-22T09:33:40.009Z,53.69
2019-03-22T09:34:48.004Z,53.46
2019-03-22T09:35:56.036Z,53.41
2019-03-22T09:37:04.344Z,53.06
2019-03-22T09:38:13.391Z,53.12
2019-03-22T09:39:21.741Z,53.29
2019-03-22T09:40:30.177Z,53.31
2019-03-22T09:41:38.618Z,53.08
2019-03-22T09:42:47.934Z,53.13
2019-03-22T09:43:56.271Z,53.26
2019-03-22T09:45:05.982Z,53.54
2019-03-22T09:46:14.081Z,53.70
2019-03-22T09:47:22.299Z,53.60
2019-03-22T09:48:30.304Z,53.61
2019-03-22T09:49:38.390Z,53.64
2019-03-22T09:50:46.501Z,53.77
2019-03-22T09:51:55.332Z,53.94
2019-03-22T09:53:03.433Z,53.61
2019-03-22T09:54:11.730Z,53.52
2019-03-22T09:55:19.744Z,53.57
2019-03-22T09:56:27.717Z,53.44
2019-03-22T09:57:35.925Z,53.60
2019-03-22T09:58:44.100Z,53.69
2019-03-22T09:59:52.114Z,53.59
2019-03-22T10:01:00.239Z,53.63
2019-03-22T10:02:08.821Z,53.82
2019-03-22T10:03:17.162Z,53.96
2019-03-22T10:04:25.281Z,53.84
2019-03-22T10:05:34.698Z,53.91
2019-03-22T10:06:43.051Z,53.88
2019-03-22T10:07:50.746Z,53.53
2019-03-22T10:09:02.628Z,53.50
2019-03-22T10:10:09.436Z,53.61
2019-03-22T10:11:17.527Z,53.49
2019-03-22T10:12:25.678Z,53.46
2019-03-22T10:13:33.789Z,53.15
2019-03-22T10:14:41.938Z,53.07
2019-03-22T10:15:49.977Z,53.08
2019-03-22T10:16:58.027Z,53.16
2019-03-22T10:18:07.690Z,53.20
2019-03-22T10:19:15.960Z,53.43
2019-03-22T10:20:23.934Z,53.59
2019-03-22T10:21:31.960Z,53.71
2019-03-22T10:22:40.129Z,53.78
2019-03-22T10:23:48.366Z,53.79
2019-03-22T10:24:56.580Z,53.93
2019-03-22T10:26:05.061Z,53.92
2019-03-22T10:27:13.007Z,53.93
2019-03-22T10:28:20.974Z,53.91
2019-03-22T10:29:28.841Z,53.87
2019-03-22T10:30:36.884Z,53.74
2019-03-22T10:31:45.109Z,53.87
2019-03-22T10:32:53.128Z,54.00
2019-03-22T10:34:01.303Z,54.08
2019-03-22T10:35:09.372Z,54.22
2019-03-22T10:36:18.710Z,54.14
2019-03-22T10:37:26.799Z,53.81
2019-03-22T10:38:36.314Z,53.79
2019-03-22T10:39:44.533Z,53.92
2019-03-22T10:40:52.378Z,54.02
2019-03-22T10:42:00.590Z,54.17
2019-03-22T10:43:08.548Z,54.38
2019-03-22T10:44:16.543Z,54.25
2019-03-22T10:45:24.580Z,54.23
2019-03-22T10:46:32.417Z,54.38
2019-03-22T10:47:40.686Z,54.23
2019-03-22T10:48:49.190Z,54.19
2019-03-22T10:49:57.345Z,54.15
2019-03-22T10:51:05.576Z,54.20
2019-03-22T10:52:13.803Z,54.03
2019-03-22T10:53:21.790Z,54.38
2019-03-22T10:54:29.731Z,54.23
2019-03-22T10:55:38.173Z,54.30
2019-03-22T10:56:46.210Z,54.47
2019-03-22T10:57:55.593Z,53.89
2019-03-22T10:59:03.881Z,53.66
2019-03-22T11:00:16.319Z,53.40
2019-03-22T11:01:24.653Z,53.14
2019-03-22T11:02:32.995Z,53.06
2019-03-22T11:03:41.007Z,53.20
2019-03-22T11:04:49.267Z,52.83
2019-03-22T11:05:57.122Z,52.89
2019-03-22T11:07:05.573Z,53.00
2019-03-22T11:08:13.769Z,52.45
2019-03-22T11:09:21.723Z,52.10
2019-03-22T11:10:29.739Z,52.03
2019-03-22T11:11:37.637Z,52.04
2019-03-22T11:12:46.117Z,52.07
2019-03-22T11:13:54.239Z,52.21
2019-03-22T11:15:02.104Z,52.27
2019-03-22T11:16:09.908Z,52.35
2019-03-22T11:17:18.013Z,52.46
2019-03-22T11:18:26.113Z,52.45
2019-03-22T11:19:34.118Z,52.36
2019-03-22T11:20:42.135Z,52.34
2019-03-22T11:21:50.202Z,52.10
2019-03-22T11:22:58.190Z,52.17
2019-03-22T11:24:06.537Z,52.21
2019-03-22T11:25:14.749Z,52.06
2019-03-22T11:26:23.055Z,52.06
2019-03-22T11:27:30.988Z,52.10
2019-03-22T11:28:38.774Z,51.99
2019-03-22T11:29:46.936Z,51.94
2019-03-22T11:31:01.161Z,52.05
2019-03-22T11:32:12.247Z,52.09
2019-03-22T11:33:14.781Z,52.17
2019-03-22T11:34:22.878Z,52.20
2019-03-22T11:35:31.258Z,52.23
2019-03-22T11:36:39.216Z,52.19
2019-03-22T11:37:47.713Z,51.96
2019-03-22T11:38:55.996Z,52.01
2019-03-22T11:40:05.790Z,52.10
2019-03-22T11:41:13.818Z,52.12
2019-03-22T11:42:22.026Z,52.19
2019-03-22T11:43:30.513Z,52.04
2019-03-22T11:44:38.575Z,52.00
2019-03-22T11:45:47.338Z,52.04
2019-03-22T11:46:55.430Z,52.18
2019-03-22T11:48:03.528Z,52.19
2019-03-22T11:49:11.511Z,52.17
2019-03-22T11:50:19.630Z,52.10
2019-03-22T11:51:28.112Z,52.21
2019-03-22T11:52:36.598Z,52.28
2019-03-22T11:53:44.511Z,52.42
2019-03-22T11:54:52.935Z,52.46
2019-03-22T11:56:00.959Z,52.56
2019-03-22T11:57:09.166Z,52.70
2019-03-22T11:58:17.494Z,52.81
2019-03-22T11:59:25.459Z,52.89
2019-03-22T12:00:33.519Z,52.95
2019-03-22T12:01:41.529Z,53.05
2019-03-22T12:02:49.605Z,53.02
2019-03-22T12:03:57.710Z,52.82
2019-03-22T12:05:08.835Z,52.99
2019-03-22T12:06:16.769Z,52.95
2019-03-22T12:07:25.383Z,52.96
2019-03-22T12:08:33.230Z,52.93
2019-03-22T12:09:41.258Z,52.99
2019-03-22T12:10:49.308Z,53.22
2019-03-22T12:11:57.254Z,53.28
2019-03-22T12:13:05.236Z,53.13
2019-03-22T12:14:13.136Z,53.23
2019-03-22T12:15:23.351Z,53.22
2019-03-22T12:16:31.248Z,53.39
2019-03-22T12:17:39.416Z,53.36
2019-03-22T12:18:47.895Z,53.15
2019-03-22T12:19:56.005Z,53.13
2019-03-22T12:21:04.158Z,53.22
2019-03-22T12:22:12.051Z,53.30
2019-03-22T12:23:19.965Z,53.51
2019-03-22T12:24:27.912Z,53.46
2019-03-22T12:25:36.078Z,53.39
2019-03-22T12:26:44.077Z,53.36
2019-03-22T12:27:52.221Z,53.28
2019-03-22T12:29:00.424Z,53.41
2019-03-22T12:30:18.057Z,53.52
2019-03-22T12:31:26.046Z,53.47
2019-03-22T12:32:33.945Z,53.66
2019-03-22T12:33:41.835Z,53.63
2019-03-22T12:34:50.041Z,53.64
2019-03-22T12:35:57.938Z,53.73
2019-03-22T12:37:05.918Z,53.65
2019-03-22T12:38:13.891Z,53.64
2019-03-22T12:39:22.025Z,53.75
2019-03-22T12:40:30.105Z,53.76
2019-03-22T12:41:38.119Z,53.74
2019-03-22T12:42:45.933Z,53.75
2019-03-22T12:43:54.133Z,53.85
2019-03-22T12:45:02.284Z,53.67
2019-03-22T12:46:10.175Z,53.71
2019-03-22T12:47:18.096Z,53.75
2019-03-22T12:48:26.042Z,53.82
2019-03-22T12:49:34.000Z,53.78
2019-03-22T12:50:42.004Z,53.80
2019-03-22T12:51:50.264Z,53.79
2019-03-22T12:52:58.368Z,53.63
2019-03-22T12:54:06.957Z,53.66
2019-03-22T12:55:15.515Z,53.50
2019-03-22T12:56:23.481Z,53.51
2019-03-22T12:57:31.483Z,53.54
2019-03-22T12:58:39.439Z,53.42
2019-03-22T12:59:47.443Z,53.41
2019-03-22T13:00:55.437Z,53.35
2019-03-22T13:02:03.351Z,53.25
2019-03-22T13:03:11.364Z,53.24
2019-03-22T13:04:19.462Z,53.28
2019-03-22T13:05:27.537Z,53.21
2019-03-22T13:06:35.557Z,53.25
2019-03-22T13:07:43.613Z,53.31
2019-03-22T13:08:51.697Z,53.39
2019-03-22T13:09:59.804Z,53.37
2019-03-22T13:11:07.816Z,53.33
2019-03-22T13:12:15.919Z,53.32
2019-03-22T13:13:23.983Z,53.30
2019-03-22T13:14:31.985Z,53.35
2019-03-22T13:15:39.767Z,53.41
2019-03-22T13:16:47.661Z,53.47
2019-03-22T13:17:55.991Z,53.44
2019-03-22T13:19:04.055Z,53.42
2019-03-22T13:20:16.359Z,53.48
2019-03-22T13:21:24.291Z,53.44
2019-03-22T13:22:32.442Z,53.46
2019-03-22T13:23:40.786Z,53.52
2019-03-22T13:24:48.701Z,53.56
2019-03-22T13:25:57.107Z,53.53
2019-03-22T13:27:05.155Z,53.73
2019-03-22T13:28:13.029Z,53.83
2019-03-22T13:29:21.098Z,53.89
2019-03-22T13:30:37.782Z,53.92
2019-03-22T13:31:45.845Z,53.89
2019-03-22T13:32:53.615Z,53.83
2019-03-22T13:34:01.715Z,53.79
2019-03-22T13:35:10.064Z,53.74
2019-03-22T13:36:18.124Z,53.73
2019-03-22T13:37:26.103Z,53.79
2019-03-22T13:38:34.023Z,53.91
2019-03-22T13:39:41.811Z,53.87
2019-03-22T13:40:51.765Z,53.83
2019-03-22T13:41:59.817Z,53.81
2019-03-22T13:43:07.984Z,53.79
2019-03-22T13:44:16.220Z,53.75
2019-03-22T13:45:24.429Z,53.83
2019-03-22T13:46:39.968Z,53.84
2019-03-22T13:47:42.025Z,53.78
2019-03-22T13:48:49.863Z,53.71
2019-03-22T13:49:57.930Z,53.82
2019-03-22T13:51:06.049Z,53.73
2019-03-22T13:52:14.330Z,53.74
2019-03-22T13:53:22.397Z,53.83
2019-03-22T13:54:30.260Z,53.80
2019-03-22T13:55:38.491Z,53.80
2019-03-22T13:56:46.490Z,53.80
2019-03-22T13:57:54.453Z,53.79
2019-03-22T13:59:02.818Z,53.76
2019-03-22T14:00:22.296Z,53.75
2019-03-22T14:01:30.432Z,53.84
2019-03-22T14:02:38.560Z,53.79
2019-03-22T14:03:46.568Z,53.78
2019-03-22T14:04:55.473Z,53.85
2019-03-22T14:06:03.555Z,53.76
2019-03-22T14:07:11.567Z,53.82
2019-03-22T14:08:19.682Z,53.88
2019-03-22T14:09:27.896Z,54.00
2019-03-22T14:10:37.625Z,53.95
2019-03-22T14:11:45.838Z,53.93
2019-03-22T14:12:53.763Z,53.85
2019-03-22T14:14:01.955Z,53.83
2019-03-22T14:15:11.724Z,53.80
2019-03-22T14:16:19.760Z,53.81
2019-03-22T14:17:28.096Z,53.85
2019-03-22T14:18:38.572Z,53.83
2019-03-22T14:19:46.805Z,53.77
2019-03-22T14:20:54.802Z,53.98
2019-03-22T14:22:03.436Z,54.31
2019-03-22T14:23:11.524Z,54.37
2019-03-22T14:24:19.646Z,54.46
2019-03-22T14:25:27.794Z,54.52
2019-03-22T14:26:35.935Z,54.72
2019-03-22T14:27:44.057Z,54.82
2019-03-22T14:28:52.149Z,54.88
2019-03-22T14:30:00.166Z,54.91
2019-03-22T14:31:08.447Z,55.03
2019-03-22T14:32:16.573Z,55.05
2019-03-22T14:33:24.559Z,55.14
2019-03-22T14:34:32.568Z,55.27
2019-03-22T14:35:40.541Z,55.21
2019-03-22T14:36:48.464Z,55.26
2019-03-22T14:37:56.686Z,55.32
2019-03-22T14:39:07.993Z,55.40
2019-03-22T14:40:16.683Z,55.46
2019-03-22T14:41:24.821Z,55.50
2019-03-22T14:42:33.158Z,55.46